Aviation Digital Data Service (ADDS)

Output produced by METARs form (0156 UTC 03 July 2022)
found at http://www.aviationweather.gov/metar/data/
 
METAR text: KANK 030155Z AUTO 13017G29KT 10SM SCT075 OVC120 19/09 A3037 RMK AO1 T01850090
Conditions at: KANK (SALIDA , CO, US) observed 0155 UTC 03 July 2022
Temperature: 18.5°C (65°F)
Dewpoint: 9.0°C (48°F) [RH = 54%]
Pressure (altimeter): 30.37 inches Hg (1028.5 mb)
Winds: from the SE (130 degrees) at 20 MPH (17 knots; 8.7 m/s)
gusting to 33 MPH (29 knots; 14.9 m/s)
Visibility: 10 or more miles (16+ km)
Ceiling: 12000 feet AGL
Clouds: scattered clouds at 7500 feet AGL
overcast cloud deck at 12000 feet AGL
Weather: automated observation with no human augmentation;
there may or may not be significant weather present at this time

METAR text: KANK 030135Z AUTO 12019G27KT 10SM OVC110 19/09 A3036 RMK AO1 T01910089
Conditions at: KANK (SALIDA , CO, US) observed 0135 UTC 03 July 2022
Temperature: 19.1°C (66°F)
Dewpoint: 8.9°C (48°F) [RH = 52%]
Pressure (altimeter): 30.36 inches Hg (1028.2 mb)
Winds: from the ESE (120 degrees) at 22 MPH (19 knots; 9.8 m/s)
gusting to 31 MPH (27 knots; 13.9 m/s)
Visibility: 10 or more miles (16+ km)
Ceiling: 11000 feet AGL
Clouds: overcast cloud deck at 11000 feet AGL
Weather: automated observation with no human augmentation;
there may or may not be significant weather present at this time

METAR text: KANK 030115Z AUTO 14015G26KT 10SM OVC110 20/09 A3035 RMK AO1 T01990085
Conditions at: KANK (SALIDA , CO, US) observed 0115 UTC 03 July 2022
Temperature: 19.9°C (68°F)
Dewpoint: 8.5°C (47°F) [RH = 48%]
Pressure (altimeter): 30.35 inches Hg (1027.9 mb)
Winds: from the SE (140 degrees) at 17 MPH (15 knots; 7.7 m/s)
gusting to 30 MPH (26 knots; 13.4 m/s)
Visibility: 10 or more miles (16+ km)
Ceiling: 11000 feet AGL
Clouds: overcast cloud deck at 11000 feet AGL
Weather: automated observation with no human augmentation;
there may or may not be significant weather present at this time